createdAt,value
2023-03-04T00:00:58.895Z,91.46
2023-03-04T00:02:02.659Z,91.40
2023-03-04T00:03:07.249Z,91.48
2023-03-04T00:04:10.199Z,91.47
2023-03-04T00:05:13.095Z,91.47
2023-03-04T00:06:16.536Z,91.43
2023-03-04T00:07:19.385Z,91.48
2023-03-04T00:08:22.304Z,91.48
2023-03-04T00:09:25.229Z,91.41
2023-03-04T00:10:28.485Z,91.51
2023-03-04T00:11:32.554Z,91.47
2023-03-04T00:12:35.423Z,91.48
2023-03-04T00:13:38.308Z,91.47
2023-03-04T00:14:41.455Z,91.50
2023-03-04T00:15:44.341Z,91.43
2023-03-04T00:16:49.277Z,91.47
2023-03-04T00:17:52.241Z,91.49
2023-03-04T00:18:56.195Z,91.52
2023-03-04T00:19:59.168Z,91.53
2023-03-04T00:21:02.032Z,91.43
2023-03-04T00:22:05.408Z,91.57
2023-03-04T00:23:08.368Z,91.53
2023-03-04T00:24:11.219Z,91.47
2023-03-04T00:25:14.412Z,91.38
2023-03-04T00:26:17.910Z,91.50
2023-03-04T00:27:22.433Z,91.55
2023-03-04T00:28:25.279Z,91.53
2023-03-04T00:29:28.799Z,91.48
2023-03-04T00:30:31.773Z,91.49
2023-03-04T00:31:35.366Z,91.43
2023-03-04T00:32:38.308Z,91.58
2023-03-04T00:33:43.566Z,91.43
2023-03-04T00:34:46.424Z,91.51
2023-03-04T00:35:49.305Z,91.44
2023-03-04T00:36:52.160Z,91.53
2023-03-04T00:37:55.040Z,91.44
2023-03-04T00:38:57.894Z,91.49
2023-03-04T00:40:01.147Z,91.43
2023-03-04T00:41:04.119Z,91.48
2023-03-04T00:42:07.046Z,91.49
2023-03-04T00:43:09.962Z,91.53
2023-03-04T00:44:12.813Z,91.50
2023-03-04T00:45:16.011Z,91.48
2023-03-04T00:46:19.072Z,91.45
2023-03-04T00:47:21.946Z,91.46
2023-03-04T00:48:24.931Z,91.57
2023-03-04T00:49:27.981Z,91.52
2023-03-04T00:50:30.814Z,91.54
2023-03-04T00:51:34.578Z,91.48
2023-03-04T00:52:37.467Z,91.52
2023-03-04T00:53:40.351Z,91.50
2023-03-04T00:54:43.250Z,91.49
2023-03-04T00:55:46.217Z,91.51
2023-03-04T00:56:49.144Z,91.48
2023-03-04T00:57:51.987Z,91.54
2023-03-04T00:58:55.019Z,91.49
2023-03-04T00:59:57.846Z,91.59
2023-03-04T01:01:00.752Z,91.51
2023-03-04T01:02:03.886Z,91.49
2023-03-04T01:03:06.826Z,91.54
2023-03-04T01:04:10.509Z,91.56
2023-03-04T01:05:14.093Z,91.48
2023-03-04T01:06:17.349Z,91.55
2023-03-04T01:07:20.868Z,91.61
2023-03-04T01:08:23.745Z,91.53
2023-03-04T01:09:26.923Z,91.51
2023-03-04T01:10:29.873Z,91.55
2023-03-04T01:11:32.894Z,91.46
2023-03-04T01:12:35.879Z,91.55
2023-03-04T01:13:38.846Z,91.59
2023-03-04T01:14:41.729Z,91.57
2023-03-04T01:15:44.604Z,91.56
2023-03-04T01:16:47.556Z,91.54
2023-03-04T01:17:51.549Z,91.55
2023-03-04T01:18:54.412Z,91.57
2023-03-04T01:19:57.275Z,91.53
2023-03-04T01:21:00.258Z,91.68
2023-03-04T01:22:05.956Z,91.58
2023-03-04T01:23:08.849Z,91.64
2023-03-04T01:24:12.034Z,91.60
2023-03-04T01:25:16.972Z,91.62
2023-03-04T01:26:19.971Z,91.70
2023-03-04T01:27:23.534Z,91.65
2023-03-04T01:28:26.934Z,91.61
2023-03-04T01:29:30.351Z,91.62
2023-03-04T01:30:33.286Z,91.58
2023-03-04T01:31:36.197Z,91.53
2023-03-04T01:32:39.094Z,91.67
2023-03-04T01:33:42.007Z,91.60
2023-03-04T01:34:46.286Z,91.61
2023-03-04T01:35:49.191Z,91.71
2023-03-04T01:36:52.240Z,91.67
2023-03-04T01:37:55.108Z,91.61
2023-03-04T01:38:57.998Z,91.74
2023-03-04T01:40:00.905Z,91.75
2023-03-04T01:41:04.259Z,91.66
2023-03-04T01:42:19.733Z,91.73
2023-03-04T01:43:25.968Z,91.66
2023-03-04T01:44:29.063Z,91.64
2023-03-04T01:45:33.042Z,91.70
2023-03-04T01:46:36.009Z,91.71
2023-03-04T01:47:38.973Z,91.79
2023-03-04T01:48:43.253Z,91.80
2023-03-04T01:49:53.517Z,91.71
2023-03-04T01:50:56.763Z,91.78
2023-03-04T01:51:59.682Z,91.69
2023-03-04T01:53:03.816Z,91.80
2023-03-04T01:54:06.722Z,91.81
2023-03-04T01:55:16.703Z,91.80
2023-03-04T01:56:25.800Z,91.75
2023-03-04T01:57:28.742Z,91.86
2023-03-04T01:58:32.859Z,91.75
2023-03-04T01:59:36.831Z,91.76
2023-03-04T02:00:40.243Z,91.80
2023-03-04T02:02:04.902Z,91.73
2023-03-04T02:03:15.313Z,91.77
2023-03-04T02:04:20.903Z,91.80
2023-03-04T02:05:24.830Z,91.70
2023-03-04T02:06:28.132Z,91.70
2023-03-04T02:07:30.996Z,91.72
2023-03-04T02:08:34.834Z,91.76
2023-03-04T02:09:37.754Z,91.65
2023-03-04T02:10:42.958Z,91.66
2023-03-04T02:11:46.995Z,91.74
2023-03-04T02:12:50.878Z,91.63
2023-03-04T02:13:53.821Z,91.72
2023-03-04T02:14:57.143Z,91.73
2023-03-04T02:16:00.478Z,91.72
2023-03-04T02:17:06.344Z,91.84
2023-03-04T02:18:21.632Z,91.76
2023-03-04T02:19:39.912Z,91.90
2023-03-04T02:21:00.152Z,91.89
2023-03-04T02:22:03.105Z,91.98
2023-03-04T02:23:23.495Z,91.89
2023-03-04T02:24:31.404Z,91.97
2023-03-04T02:25:42.790Z,92.02
2023-03-04T02:26:47.113Z,92.08
2023-03-04T02:27:50.471Z,92.03
2023-03-04T02:28:55.460Z,92.01
2023-03-04T02:29:58.656Z,92.13
2023-03-04T02:31:02.084Z,92.09
2023-03-04T02:32:05.219Z,92.12
2023-03-04T02:33:17.082Z,92.14
2023-03-04T02:34:27.679Z,92.06
2023-03-04T02:35:30.828Z,92.15
2023-03-04T02:36:36.484Z,92.11
2023-03-04T02:37:43.257Z,92.04
2023-03-04T02:38:46.483Z,92.15
2023-03-04T02:39:50.254Z,92.15
2023-03-04T02:40:56.153Z,92.17
2023-03-04T02:42:00.173Z,92.26
2023-03-04T02:43:03.894Z,92.02
2023-03-04T02:44:17.708Z,92.05
2023-03-04T02:45:35.376Z,92.10
2023-03-04T02:46:38.299Z,92.09
2023-03-04T02:47:41.189Z,92.01
2023-03-04T02:48:44.136Z,92.11
2023-03-04T02:49:47.651Z,92.08
2023-03-04T02:50:53.171Z,92.15
2023-03-04T02:52:00.786Z,92.22
2023-03-04T02:53:03.931Z,92.10
2023-03-04T02:54:15.754Z,92.08
2023-03-04T02:55:18.603Z,92.12
2023-03-04T02:56:21.663Z,92.20
2023-03-04T02:57:24.602Z,92.15
2023-03-04T02:58:30.037Z,92.10
2023-03-04T02:59:34.854Z,92.21
2023-03-04T03:00:38.420Z,92.20
2023-03-04T03:01:42.070Z,92.11
2023-03-04T03:02:45.025Z,92.15
2023-03-04T03:03:49.172Z,92.15
2023-03-04T03:04:52.355Z,92.14
2023-03-04T03:05:55.958Z,92.22
2023-03-04T03:06:59.044Z,92.12
2023-03-04T03:08:02.224Z,92.09
2023-03-04T03:09:06.063Z,92.07
2023-03-04T03:10:10.006Z,92.06
2023-03-04T03:11:12.972Z,92.08
2023-03-04T03:12:15.945Z,92.15
2023-03-04T03:13:19.327Z,92.13
2023-03-04T03:14:22.310Z,92.05
2023-03-04T03:15:25.490Z,92.02
2023-03-04T03:16:28.498Z,92.08
2023-03-04T03:17:31.497Z,92.10
2023-03-04T03:18:34.422Z,92.02
2023-03-04T03:19:37.339Z,92.09
2023-03-04T03:20:41.054Z,92.06
2023-03-04T03:21:44.084Z,92.20
2023-03-04T03:22:47.714Z,92.13
2023-03-04T03:23:51.113Z,92.02
2023-03-04T03:24:54.252Z,92.19
2023-03-04T03:25:57.118Z,92.06
2023-03-04T03:27:03.497Z,92.04
2023-03-04T03:28:06.910Z,91.99
2023-03-04T03:29:09.776Z,92.04
2023-03-04T03:30:14.849Z,92.10
2023-03-04T03:31:17.768Z,92.11
2023-03-04T03:32:22.798Z,92.04
2023-03-04T03:33:27.164Z,92.09
2023-03-04T03:34:30.645Z,92.07
2023-03-04T03:35:33.573Z,92.07
2023-03-04T03:36:36.549Z,92.05
2023-03-04T03:37:39.503Z,92.04
2023-03-04T03:38:42.395Z,91.99
2023-03-04T03:39:45.399Z,92.01
2023-03-04T03:40:48.269Z,91.96
2023-03-04T03:41:51.127Z,91.96
2023-03-04T03:42:54.040Z,91.98
2023-03-04T03:43:57.078Z,91.87
2023-03-04T03:45:00.019Z,91.96
2023-03-04T03:46:03.084Z,91.98
2023-03-04T03:47:06.076Z,91.95
2023-03-04T03:48:08.956Z,91.98
2023-03-04T03:49:11.876Z,91.99
2023-03-04T03:50:14.821Z,91.82
2023-03-04T03:51:17.674Z,92.01
2023-03-04T03:52:20.534Z,92.00
2023-03-04T03:53:23.524Z,91.91
2023-03-04T03:54:26.461Z,91.87
2023-03-04T03:55:29.533Z,91.90
2023-03-04T03:56:32.754Z,91.85
2023-03-04T03:57:35.644Z,91.86
2023-03-04T03:58:38.479Z,91.91
2023-03-04T03:59:41.345Z,91.89
2023-03-04T04:00:44.258Z,91.99
2023-03-04T04:01:47.302Z,91.95
2023-03-04T04:02:50.602Z,91.90
2023-03-04T04:03:53.512Z,91.91
2023-03-04T04:04:56.350Z,91.87
2023-03-04T04:05:59.223Z,91.90
2023-03-04T04:07:02.222Z,91.81
2023-03-04T04:08:05.354Z,91.91
2023-03-04T04:09:08.183Z,91.83
2023-03-04T04:10:11.756Z,91.86
2023-03-04T04:11:14.636Z,91.83
2023-03-04T04:12:18.687Z,91.82
2023-03-04T04:13:21.603Z,91.88
2023-03-04T04:14:24.461Z,91.73
2023-03-04T04:15:27.641Z,91.70
2023-03-04T04:16:31.135Z,91.79
2023-03-04T04:17:34.006Z,91.78
2023-03-04T04:18:37.123Z,91.87
2023-03-04T04:19:40.826Z,91.74
2023-03-04T04:20:43.674Z,91.79
2023-03-04T04:21:46.976Z,91.83
2023-03-04T04:22:50.218Z,91.80
2023-03-04T04:23:53.066Z,91.85
2023-03-04T04:24:55.942Z,91.78
2023-03-04T04:25:58.945Z,91.79
2023-03-04T04:27:02.381Z,91.81
2023-03-04T04:28:05.375Z,91.76
2023-03-04T04:29:08.765Z,91.70
2023-03-04T04:30:12.304Z,91.78
2023-03-04T04:31:15.272Z,91.74
2023-03-04T04:32:18.204Z,91.69
2023-03-04T04:33:21.133Z,91.78
2023-03-04T04:34:24.158Z,91.81
2023-03-04T04:35:27.356Z,91.64
2023-03-04T04:36:30.358Z,91.69
2023-03-04T04:37:33.389Z,91.76
2023-03-04T04:38:37.794Z,91.71
2023-03-04T04:39:40.681Z,91.77
2023-03-04T04:40:43.673Z,91.67
2023-03-04T04:41:46.909Z,91.68
2023-03-04T04:42:49.989Z,91.70
2023-03-04T04:43:53.034Z,91.67
2023-03-04T04:44:57.367Z,91.69
2023-03-04T04:46:00.356Z,91.69
2023-03-04T04:47:03.254Z,91.69
2023-03-04T04:48:06.453Z,91.68
2023-03-04T04:49:09.963Z,91.69
2023-03-04T04:50:12.886Z,91.60
2023-03-04T04:51:15.997Z,91.62
2023-03-04T04:52:19.008Z,91.67
2023-03-04T04:53:25.252Z,91.70
2023-03-04T04:54:28.247Z,91.60
2023-03-04T04:55:31.349Z,91.53
2023-03-04T04:56:34.700Z,91.64
2023-03-04T04:57:37.757Z,91.61
2023-03-04T04:58:41.079Z,91.55
2023-03-04T04:59:44.000Z,91.56
2023-03-04T05:00:46.879Z,91.56
2023-03-04T05:01:49.845Z,91.51
2023-03-04T05:02:52.760Z,91.41
2023-03-04T05:03:56.376Z,91.57
2023-03-04T05:04:59.253Z,91.53
2023-03-04T05:06:04.280Z,91.46
2023-03-04T05:07:07.190Z,91.49
2023-03-04T05:08:10.084Z,91.49
2023-03-04T05:09:13.614Z,91.45
2023-03-04T05:10:16.949Z,91.63
2023-03-04T05:11:20.349Z,91.53
2023-03-04T05:12:23.269Z,91.47
2023-03-04T05:13:26.500Z,91.47
2023-03-04T05:14:29.368Z,91.48
2023-03-04T05:15:32.276Z,91.45
2023-03-04T05:16:35.250Z,91.50
2023-03-04T05:17:38.223Z,91.52
2023-03-04T05:18:41.424Z,91.45
2023-03-04T05:19:44.248Z,91.42
2023-03-04T05:20:52.759Z,91.42
2023-03-04T05:21:55.624Z,91.37
2023-03-04T05:22:58.547Z,91.42
2023-03-04T05:24:01.425Z,91.46
2023-03-04T05:25:04.625Z,91.36
2023-03-04T05:26:11.391Z,91.50
2023-03-04T05:27:14.250Z,91.37
2023-03-04T05:28:17.882Z,91.38
2023-03-04T05:29:20.805Z,91.40
2023-03-04T05:30:23.651Z,91.35
2023-03-04T05:31:26.994Z,91.36
2023-03-04T05:32:30.161Z,91.29
2023-03-04T05:33:33.395Z,91.52
2023-03-04T05:34:36.237Z,91.38
2023-03-04T05:35:40.753Z,91.36
2023-03-04T05:36:43.632Z,91.35
2023-03-04T05:37:46.502Z,91.32
2023-03-04T05:38:49.814Z,91.34
2023-03-04T05:39:52.666Z,91.34
2023-03-04T05:41:00.970Z,91.30
2023-03-04T05:42:03.840Z,91.39
2023-03-04T05:43:06.742Z,91.41
2023-03-04T05:44:09.605Z,91.45
2023-03-04T05:45:13.026Z,91.42
2023-03-04T05:46:17.923Z,91.41
2023-03-04T05:47:20.885Z,91.38
2023-03-04T05:48:24.465Z,91.36
2023-03-04T05:49:27.350Z,91.39
2023-03-04T05:50:30.668Z,91.42
2023-03-04T05:51:33.598Z,91.32
2023-03-04T05:52:36.586Z,91.49
2023-03-04T05:53:41.110Z,91.44
2023-03-04T05:54:43.998Z,91.54
2023-03-04T05:55:47.918Z,91.44
2023-03-04T05:56:50.750Z,91.49
2023-03-04T05:57:54.026Z,91.45
2023-03-04T05:58:59.250Z,91.49
2023-03-04T06:00:02.941Z,91.52
2023-03-04T06:01:16.474Z,91.54
2023-03-04T06:02:19.751Z,91.45
2023-03-04T06:03:22.987Z,91.48
2023-03-04T06:04:26.013Z,91.54
2023-03-04T06:05:28.922Z,91.54
2023-03-04T06:06:32.100Z,91.48
2023-03-04T06:07:35.164Z,91.46
2023-03-04T06:08:38.228Z,91.50
2023-03-04T06:09:41.106Z,91.55
2023-03-04T06:10:43.984Z,91.47
2023-03-04T06:11:47.245Z,91.53
2023-03-04T06:12:50.105Z,91.44
2023-03-04T06:13:53.130Z,91.43
2023-03-04T06:14:56.042Z,91.51
2023-03-04T06:15:59.703Z,91.32
2023-03-04T06:17:02.633Z,91.49
2023-03-04T06:18:07.259Z,91.52
2023-03-04T06:19:10.138Z,91.51
2023-03-04T06:20:13.130Z,91.52
2023-03-04T06:21:16.027Z,91.45
2023-03-04T06:22:18.904Z,91.46
2023-03-04T06:23:21.762Z,91.49
2023-03-04T06:24:24.675Z,91.47
2023-03-04T06:25:28.003Z,91.56
2023-03-04T06:26:31.398Z,91.48
2023-03-04T06:27:34.313Z,91.56
2023-03-04T06:28:37.276Z,91.56
2023-03-04T06:29:40.176Z,91.55
2023-03-04T06:30:43.404Z,91.50
2023-03-04T06:31:46.440Z,91.48
2023-03-04T06:32:49.547Z,91.49
2023-03-04T06:33:52.477Z,91.51
2023-03-04T06:34:55.546Z,91.56
2023-03-04T06:35:58.484Z,91.58
2023-03-04T06:37:01.357Z,91.60
2023-03-04T06:38:04.274Z,91.55
2023-03-04T06:39:08.009Z,91.54
2023-03-04T06:40:12.102Z,91.46
2023-03-04T06:41:15.345Z,91.47
2023-03-04T06:42:19.446Z,91.50
2023-03-04T06:43:22.317Z,91.54
2023-03-04T06:44:25.241Z,91.55
2023-03-04T06:45:28.143Z,91.45
2023-03-04T06:46:31.224Z,91.49
2023-03-04T06:47:34.423Z,91.45
2023-03-04T06:48:37.655Z,91.48
2023-03-04T06:49:40.586Z,91.51
2023-03-04T06:50:43.449Z,91.50
2023-03-04T06:51:46.288Z,91.44
2023-03-04T06:52:49.486Z,91.53
2023-03-04T06:53:52.547Z,91.48
2023-03-04T06:54:55.388Z,91.53
2023-03-04T06:55:58.558Z,91.48
2023-03-04T06:57:01.416Z,91.51
2023-03-04T06:58:04.362Z,91.45
2023-03-04T06:59:07.184Z,91.44
2023-03-04T07:00:10.672Z,91.53
2023-03-04T07:01:14.515Z,91.40
2023-03-04T07:02:17.358Z,91.53
2023-03-04T07:03:21.347Z,91.55
2023-03-04T07:04:24.805Z,91.41
2023-03-04T07:05:28.107Z,91.46
2023-03-04T07:06:31.138Z,91.44
2023-03-04T07:07:33.995Z,91.43
2023-03-04T07:08:37.130Z,91.49
2023-03-04T07:09:40.491Z,91.54
2023-03-04T07:10:43.404Z,91.52
2023-03-04T07:11:46.622Z,91.37
2023-03-04T07:12:49.587Z,91.49
2023-03-04T07:13:52.974Z,91.45
2023-03-04T07:14:55.872Z,91.48
2023-03-04T07:16:00.542Z,91.38
2023-03-04T07:17:03.470Z,91.42
2023-03-04T07:18:06.340Z,91.36
2023-03-04T07:19:09.292Z,91.37
2023-03-04T07:20:12.510Z,91.42
2023-03-04T07:21:16.532Z,91.39
2023-03-04T07:22:19.437Z,91.32
2023-03-04T07:23:22.340Z,91.39
2023-03-04T07:24:25.228Z,91.28
2023-03-04T07:25:28.355Z,91.37
2023-03-04T07:26:31.238Z,91.27
2023-03-04T07:27:34.159Z,91.35
2023-03-04T07:28:37.496Z,91.25
2023-03-04T07:29:40.379Z,91.31
2023-03-04T07:30:43.720Z,91.28
2023-03-04T07:31:46.738Z,91.26
2023-03-04T07:32:49.725Z,91.16
2023-03-04T07:33:52.762Z,91.15
2023-03-04T07:34:55.624Z,91.20
2023-03-04T07:36:00.241Z,91.11
2023-03-04T07:37:03.556Z,91.24
2023-03-04T07:38:06.676Z,91.12
2023-03-04T07:39:11.480Z,91.15
2023-03-04T07:40:14.429Z,91.15
2023-03-04T07:41:18.802Z,91.09
2023-03-04T07:42:21.667Z,91.18
2023-03-04T07:43:28.652Z,91.11
2023-03-04T07:44:31.934Z,91.17
2023-03-04T07:45:35.190Z,91.17
2023-03-04T07:46:38.270Z,91.08
2023-03-04T07:47:41.552Z,91.11
2023-03-04T07:48:44.815Z,91.03
2023-03-04T07:49:47.616Z,90.98
2023-03-04T07:50:50.484Z,91.07
2023-03-04T07:51:53.404Z,90.96
2023-03-04T07:52:56.302Z,90.95
2023-03-04T07:54:00.972Z,90.93
2023-03-04T07:55:04.022Z,90.80
2023-03-04T07:56:08.503Z,90.92
2023-03-04T07:57:11.508Z,90.95
2023-03-04T07:58:14.351Z,90.91
2023-03-04T07:59:17.207Z,90.78
2023-03-04T08:00:20.458Z,90.86
2023-03-04T08:01:45.531Z,90.80
2023-03-04T08:02:52.350Z,90.80
2023-03-04T08:03:55.864Z,90.85
2023-03-04T08:04:58.710Z,90.84
2023-03-04T08:06:04.914Z,90.88
2023-03-04T08:07:07.817Z,90.86
2023-03-04T08:08:10.933Z,90.87
2023-03-04T08:09:14.157Z,90.83
2023-03-04T08:10:17.277Z,90.80
2023-03-04T08:11:21.753Z,90.79
2023-03-04T08:12:25.328Z,90.67
2023-03-04T08:13:28.355Z,90.74
2023-03-04T08:14:31.261Z,90.82
2023-03-04T08:15:35.473Z,90.77
2023-03-04T08:16:38.628Z,90.78
2023-03-04T08:17:41.594Z,90.76
2023-03-04T08:18:46.010Z,90.61
2023-03-04T08:19:49.312Z,90.58
2023-03-04T08:20:52.568Z,90.59
2023-03-04T08:21:55.523Z,90.63
2023-03-04T08:22:58.368Z,90.62
2023-03-04T08:24:08.136Z,90.57
2023-03-04T08:25:11.595Z,90.65
2023-03-04T08:26:27.723Z,90.63
2023-03-04T08:27:30.568Z,90.58
2023-03-04T08:28:34.124Z,90.65
2023-03-04T08:29:37.084Z,90.70
2023-03-04T08:30:41.056Z,90.64
2023-03-04T08:31:48.746Z,90.62
2023-03-04T08:32:52.164Z,90.55
2023-03-04T08:33:55.302Z,90.55
2023-03-04T08:34:58.177Z,90.55
2023-03-04T08:36:01.108Z,90.57
2023-03-04T08:37:04.003Z,90.62
2023-03-04T08:38:07.273Z,90.61
2023-03-04T08:39:13.636Z,90.59
2023-03-04T08:40:16.622Z,90.54
2023-03-04T08:41:20.525Z,90.49
2023-03-04T08:42:24.289Z,90.49
2023-03-04T08:43:27.429Z,90.53
2023-03-04T08:44:30.316Z,90.53
2023-03-04T08:45:33.303Z,90.50
2023-03-04T08:46:51.620Z,90.51
2023-03-04T08:47:55.616Z,90.39
2023-03-04T08:48:58.508Z,90.54
2023-03-04T08:50:01.353Z,90.51
2023-03-04T08:51:09.058Z,90.45
2023-03-04T08:52:11.916Z,90.64
2023-03-04T08:53:16.480Z,90.59
2023-03-04T08:54:19.660Z,90.56
2023-03-04T08:55:22.541Z,90.60
2023-03-04T08:56:25.438Z,90.53
2023-03-04T08:57:28.713Z,90.51
2023-03-04T08:58:31.776Z,90.48
2023-03-04T08:59:37.066Z,90.55
2023-03-04T09:00:44.618Z,90.52
2023-03-04T09:01:47.675Z,90.54
2023-03-04T09:02:50.533Z,90.75
2023-03-04T09:03:53.699Z,90.62
2023-03-04T09:04:56.920Z,90.59
2023-03-04T09:06:02.238Z,90.64
2023-03-04T09:07:05.218Z,90.56
2023-03-04T09:08:08.287Z,90.61
2023-03-04T09:09:11.155Z,90.64
2023-03-04T09:10:14.178Z,90.85
2023-03-04T09:11:17.763Z,90.62
2023-03-04T09:12:20.669Z,90.65
2023-03-04T09:13:26.292Z,90.64
2023-03-04T09:14:29.426Z,90.59
2023-03-04T09:15:36.663Z,90.66
2023-03-04T09:16:39.735Z,90.76
2023-03-04T09:17:42.697Z,90.63
2023-03-04T09:18:45.563Z,90.71
2023-03-04T09:19:48.419Z,90.67
2023-03-04T09:20:51.938Z,90.67
2023-03-04T09:21:55.948Z,90.67
2023-03-04T09:23:03.273Z,90.70
2023-03-04T09:24:06.321Z,90.64
2023-03-04T09:25:13.738Z,90.64
2023-03-04T09:26:23.166Z,90.64
2023-03-04T09:27:26.121Z,90.50
2023-03-04T09:28:28.946Z,90.52
2023-03-04T09:29:31.888Z,90.57
2023-03-04T09:30:35.498Z,90.66
2023-03-04T09:31:38.416Z,90.84
2023-03-04T09:32:41.581Z,90.62
2023-03-04T09:33:45.012Z,90.66
2023-03-04T09:34:47.928Z,90.56
2023-03-04T09:35:50.926Z,90.54
2023-03-04T09:36:53.838Z,90.33
2023-03-04T09:37:58.177Z,90.42
2023-03-04T09:39:04.393Z,90.43
2023-03-04T09:40:08.307Z,90.32
2023-03-04T09:41:18.172Z,90.29
2023-03-04T09:42:36.362Z,90.24
2023-03-04T09:43:40.299Z,90.21
2023-03-04T09:45:05.878Z,90.22
2023-03-04T09:46:38.405Z,90.24
2023-03-04T09:47:42.332Z,90.28
2023-03-04T09:48:51.909Z,90.33
2023-03-04T09:49:58.184Z,90.34
2023-03-04T09:51:21.908Z,90.34
2023-03-04T09:52:27.841Z,90.27
2023-03-04T09:54:16.471Z,90.29
2023-03-04T09:55:36.520Z,90.26
2023-03-04T09:56:41.738Z,90.20
2023-03-04T09:57:48.244Z,90.15
2023-03-04T09:58:56.979Z,90.24
2023-03-04T09:59:59.816Z,90.37
2023-03-04T10:01:25.708Z,90.28
2023-03-04T10:02:43.820Z,90.21
2023-03-04T10:03:54.258Z,90.23
2023-03-04T10:05:01.035Z,90.13
2023-03-04T10:06:11.740Z,90.23
2023-03-04T10:07:29.808Z,90.09
2023-03-04T10:08:52.574Z,90.09
2023-03-04T10:10:07.525Z,90.07
2023-03-04T10:11:21.696Z,89.80
2023-03-04T10:12:30.356Z,89.91
2023-03-04T10:13:41.311Z,89.92
2023-03-04T10:14:52.578Z,89.75
2023-03-04T10:15:58.635Z,89.66
2023-03-04T10:17:16.802Z,89.71
2023-03-04T10:18:22.332Z,89.76
2023-03-04T10:19:37.102Z,89.85
2023-03-04T10:20:55.923Z,89.87
2023-03-04T10:21:59.178Z,89.67
2023-03-04T10:23:18.440Z,89.64
2023-03-04T10:24:25.240Z,89.60
2023-03-04T10:25:31.181Z,89.56
2023-03-04T10:26:34.254Z,89.67
2023-03-04T10:27:37.345Z,89.76
2023-03-04T10:28:40.399Z,89.69
2023-03-04T10:29:43.922Z,89.63
2023-03-04T10:30:55.634Z,89.74
2023-03-04T10:31:58.811Z,89.67
2023-03-04T10:33:01.924Z,89.73
2023-03-04T10:34:07.133Z,89.67
2023-03-04T10:35:15.913Z,89.88
2023-03-04T10:36:31.409Z,89.85
2023-03-04T10:37:46.562Z,89.72
2023-03-04T10:38:54.737Z,89.78
2023-03-04T10:40:01.394Z,89.85
2023-03-04T10:41:36.773Z,89.75
2023-03-04T10:42:40.444Z,89.73
2023-03-04T10:43:46.893Z,89.74
2023-03-04T10:45:00.923Z,89.69
2023-03-04T10:46:03.909Z,89.65
2023-03-04T10:47:12.066Z,89.77
2023-03-04T10:48:24.497Z,89.74
2023-03-04T10:49:29.391Z,89.70
2023-03-04T10:50:32.852Z,89.85
2023-03-04T10:51:44.820Z,89.84
2023-03-04T10:52:53.327Z,89.86
2023-03-04T10:54:04.129Z,89.75
2023-03-04T10:55:17.234Z,89.70
2023-03-04T10:56:35.892Z,89.75
2023-03-04T10:57:41.819Z,89.75
2023-03-04T10:58:44.662Z,89.68
2023-03-04T11:00:22.914Z,89.94
2023-03-04T11:01:26.224Z,89.91
2023-03-04T11:02:34.715Z,89.97
2023-03-04T11:03:38.114Z,90.05
2023-03-04T11:04:41.003Z,90.12
2023-03-04T11:05:43.964Z,90.14
2023-03-04T11:06:46.788Z,89.92
2023-03-04T11:07:59.757Z,90.10
2023-03-04T11:09:02.662Z,90.11
2023-03-04T11:10:10.829Z,90.05
2023-03-04T11:11:44.847Z,90.21
2023-03-04T11:13:10.561Z,90.27
2023-03-04T11:14:18.490Z,90.07
2023-03-04T11:15:31.252Z,90.13
2023-03-04T11:16:34.943Z,90.20
2023-03-04T11:17:48.457Z,90.26
2023-03-04T11:18:54.354Z,90.28
2023-03-04T11:20:28.193Z,90.22
2023-03-04T11:21:39.980Z,90.23
2023-03-04T11:22:46.131Z,90.34
2023-03-04T11:24:08.132Z,90.43
2023-03-04T11:25:29.871Z,90.45
2023-03-04T11:26:42.976Z,90.42
2023-03-04T11:27:52.354Z,90.63
2023-03-04T11:29:16.158Z,90.72
2023-03-04T11:30:21.876Z,90.54
2023-03-04T11:31:29.249Z,90.40
2023-03-04T11:32:40.844Z,90.56
2023-03-04T11:34:07.976Z,90.33
2023-03-04T11:35:35.501Z,90.39
2023-03-04T11:36:50.698Z,90.49
2023-03-04T11:38:05.816Z,90.45
2023-03-04T11:39:24.415Z,90.62
2023-03-04T11:40:43.207Z,90.68
2023-03-04T11:41:54.965Z,90.66
2023-03-04T11:43:04.605Z,90.58
2023-03-04T11:44:09.028Z,90.75
2023-03-04T11:45:27.912Z,90.69
2023-03-04T11:47:12.939Z,90.63
2023-03-04T11:48:34.168Z,90.75
2023-03-04T11:50:05.006Z,90.88
2023-03-04T11:51:23.822Z,90.86
2023-03-04T11:52:39.814Z,90.87
2023-03-04T11:53:49.942Z,90.89
2023-03-04T11:55:26.039Z,90.99
2023-03-04T11:56:44.865Z,91.06
2023-03-04T11:57:53.780Z,91.14
2023-03-04T11:59:17.606Z,91.12
2023-03-04T12:00:47.929Z,91.04
2023-03-04T12:01:53.801Z,91.13
2023-03-04T12:03:31.659Z,91.22
2023-03-04T12:04:50.068Z,91.23
2023-03-04T12:06:14.589Z,91.19
2023-03-04T12:07:39.429Z,91.36
2023-03-04T12:09:09.056Z,91.32
2023-03-04T12:10:30.672Z,91.33
2023-03-04T12:11:46.374Z,91.51
2023-03-04T12:13:07.411Z,91.44
2023-03-04T12:14:52.634Z,91.52
2023-03-04T12:16:04.520Z,91.48
2023-03-04T12:17:34.885Z,91.60
2023-03-04T12:19:06.436Z,91.61
2023-03-04T12:20:18.057Z,91.81
2023-03-04T12:21:48.842Z,91.81
2023-03-04T12:22:57.184Z,91.88
2023-03-04T12:24:32.648Z,91.97
2023-03-04T12:25:38.561Z,91.99
2023-03-04T12:26:51.071Z,92.01
2023-03-04T12:28:03.972Z,92.09
2023-03-04T12:29:22.437Z,92.23
2023-03-04T12:30:45.123Z,92.29
2023-03-04T12:31:58.763Z,92.40
2023-03-04T12:33:09.232Z,92.49
2023-03-04T12:34:38.234Z,92.43
2023-03-04T12:35:56.162Z,92.59
2023-03-04T12:37:10.969Z,92.62
2023-03-04T12:38:26.056Z,92.69
2023-03-04T12:39:56.033Z,92.82
2023-03-04T12:41:34.248Z,92.78
2023-03-04T12:43:02.969Z,92.86
2023-03-04T12:44:17.094Z,92.86
2023-03-04T12:45:38.892Z,92.74
2023-03-04T12:46:48.841Z,92.67
2023-03-04T12:47:54.513Z,92.77
2023-03-04T12:49:06.690Z,92.82
2023-03-04T12:50:43.521Z,92.76
2023-03-04T12:52:02.976Z,92.91
2023-03-04T12:53:25.947Z,93.06
2023-03-04T12:54:34.394Z,93.05
2023-03-04T12:55:40.728Z,93.16
2023-03-04T12:56:50.131Z,93.07
2023-03-04T12:57:56.700Z,93.15
2023-03-04T12:59:00.345Z,93.35
2023-03-04T13:00:34.178Z,93.38
2023-03-04T13:01:41.852Z,93.55
2023-03-04T13:03:18.296Z,93.63
2023-03-04T13:05:05.008Z,93.53
2023-03-04T13:06:27.376Z,93.60
2023-03-04T13:07:42.147Z,93.72
2023-03-04T13:08:50.891Z,93.79
2023-03-04T13:10:12.394Z,93.82
2023-03-04T13:11:28.418Z,93.91
2023-03-04T13:12:46.833Z,94.14
2023-03-04T13:14:17.714Z,94.08
2023-03-04T13:15:33.442Z,94.08
2023-03-04T13:17:01.965Z,94.12
2023-03-04T13:18:25.242Z,94.02
2023-03-04T13:19:49.457Z,94.03
2023-03-04T13:21:07.836Z,94.16
2023-03-04T13:22:39.433Z,94.03
2023-03-04T13:23:42.597Z,94.14
2023-03-04T13:24:48.682Z,94.02
2023-03-04T13:25:58.146Z,94.08
2023-03-04T13:27:01.006Z,93.96
2023-03-04T13:28:09.882Z,93.82
2023-03-04T13:29:18.578Z,93.77
2023-03-04T13:30:41.562Z,93.76
2023-03-04T13:32:10.342Z,93.90
2023-03-04T13:33:15.800Z,93.82
2023-03-04T13:34:51.832Z,93.83
2023-03-04T13:35:54.882Z,93.73
2023-03-04T13:36:59.163Z,93.73
2023-03-04T13:38:04.845Z,93.61
2023-03-04T13:39:29.030Z,93.70
2023-03-04T13:40:38.390Z,93.58
2023-03-04T13:41:53.751Z,93.60
2023-03-04T13:43:26.824Z,93.43
2023-03-04T13:44:38.360Z,93.37
2023-03-04T13:45:41.416Z,93.29
2023-03-04T13:46:44.570Z,93.21
2023-03-04T13:47:48.866Z,93.00
2023-03-04T13:48:51.817Z,93.02
2023-03-04T13:50:39.819Z,92.82
2023-03-04T13:51:46.216Z,92.76
2023-03-04T13:52:49.379Z,92.78
2023-03-04T13:53:55.245Z,92.64
2023-03-04T13:55:31.252Z,92.66
2023-03-04T13:56:37.782Z,92.69
2023-03-04T13:57:49.478Z,92.57
2023-03-04T13:59:24.098Z,92.35
2023-03-04T14:00:29.263Z,92.24
2023-03-04T14:01:55.614Z,92.25
2023-03-04T14:03:12.879Z,92.06
2023-03-04T14:04:15.714Z,91.96
2023-03-04T14:05:18.722Z,91.96
2023-03-04T14:06:26.211Z,91.69
2023-03-04T14:07:37.222Z,91.37
2023-03-04T14:08:40.194Z,90.94
2023-03-04T14:09:56.434Z,91.01
2023-03-04T14:10:59.367Z,91.16
2023-03-04T14:12:13.025Z,91.05
2023-03-04T14:13:16.319Z,90.95
2023-03-04T14:14:23.119Z,91.04
2023-03-04T14:15:28.797Z,91.49
2023-03-04T14:16:40.010Z,91.23
2023-03-04T14:17:49.773Z,91.15
2023-03-04T14:19:04.029Z,90.86
2023-03-04T14:20:25.757Z,90.94
2023-03-04T14:21:30.161Z,91.00
2023-03-04T14:22:39.350Z,91.12
2023-03-04T14:23:42.207Z,91.00
2023-03-04T14:25:13.228Z,91.16